sensor_id;sensor_type;location;lat;lon;timestamp;P1;durP1;ratioP1;P2;durP2;ratioP2
17686;SDS011;8962;52.538;13.266;2023-04-30T00:02:18;8.23;;;3.17;;
17686;SDS011;8962;52.538;13.266;2023-04-30T00:04:49;8.05;;;3.47;;
17686;SDS011;8962;52.538;13.266;2023-04-30T00:07:17;8.48;;;3.45;;
17686;SDS011;8962;52.538;13.266;2023-04-30T00:09:44;9.00;;;3.42;;
17686;SDS011;8962;52.538;13.266;2023-04-30T00:12:11;8.07;;;3.50;;
17686;SDS011;8962;52.538;13.266;2023-04-30T00:14:38;8.63;;;3.45;;
17686;SDS011;8962;52.538;13.266;2023-04-30T00:17:05;9.10;;;3.53;;
17686;SDS011;8962;52.538;13.266;2023-04-30T00:19:33;8.38;;;3.53;;
17686;SDS011;8962;52.538;13.266;2023-04-30T00:22:01;12.00;;;3.85;;
17686;SDS011;8962;52.538;13.266;2023-04-30T00:24:30;6.55;;;3.00;;
17686;SDS011;8962;52.538;13.266;2023-04-30T00:26:57;8.32;;;3.22;;
17686;SDS011;8962;52.538;13.266;2023-04-30T00:29:25;12.32;;;3.75;;
17686;SDS011;8962;52.538;13.266;2023-04-30T00:31:52;5.60;;;3.10;;
17686;SDS011;8962;52.538;13.266;2023-04-30T00:34:19;11.32;;;3.05;;
17686;SDS011;8962;52.538;13.266;2023-04-30T00:36:46;11.05;;;3.00;;
17686;SDS011;8962;52.538;13.266;2023-04-30T00:39:15;10.70;;;3.10;;
17686;SDS011;8962;52.538;13.266;2023-04-30T00:41:42;8.18;;;2.80;;
17686;SDS011;8962;52.538;13.266;2023-04-30T00:44:10;12.02;;;2.95;;
17686;SDS011;8962;52.538;13.266;2023-04-30T00:46:37;11.10;;;3.20;;
17686;SDS011;8962;52.538;13.266;2023-04-30T00:49:04;9.35;;;3.00;;
17686;SDS011;8962;52.538;13.266;2023-04-30T00:51:33;6.93;;;3.00;;
17686;SDS011;8962;52.538;13.266;2023-04-30T00:54:01;9.75;;;3.83;;
17686;SDS011;8962;52.538;13.266;2023-04-30T00:56:31;8.63;;;2.95;;
17686;SDS011;8962;52.538;13.266;2023-04-30T00:58:58;10.27;;;3.10;;
17686;SDS011;8962;52.538;13.266;2023-04-30T01:01:25;11.20;;;2.95;;
17686;SDS011;8962;52.538;13.266;2023-04-30T01:03:54;10.25;;;3.03;;
17686;SDS011;8962;52.538;13.266;2023-04-30T01:06:21;13.70;;;3.22;;
17686;SDS011;8962;52.538;13.266;2023-04-30T01:08:49;7.57;;;2.80;;
17686;SDS011;8962;52.538;13.266;2023-04-30T01:11:20;6.75;;;2.88;;
17686;SDS011;8962;52.538;13.266;2023-04-30T01:13:57;11.60;;;3.20;;
17686;SDS011;8962;52.538;13.266;2023-04-30T01:16:30;10.93;;;3.22;;
17686;SDS011;8962;52.538;13.266;2023-04-30T01:19:04;7.70;;;2.63;;
17686;SDS011;8962;52.538;13.266;2023-04-30T01:21:36;9.27;;;2.70;;
17686;SDS011;8962;52.538;13.266;2023-04-30T01:24:14;15.18;;;3.38;;
17686;SDS011;8962;52.538;13.266;2023-04-30T01:26:57;10.57;;;2.90;;
17686;SDS011;8962;52.538;13.266;2023-04-30T01:29:33;9.65;;;3.10;;
17686;SDS011;8962;52.538;13.266;2023-04-30T01:32:01;14.35;;;3.10;;
17686;SDS011;8962;52.538;13.266;2023-04-30T01:34:29;9.75;;;3.40;;
17686;SDS011;8962;52.538;13.266;2023-04-30T01:37:01;8.32;;;3.05;;
17686;SDS011;8962;52.538;13.266;2023-04-30T01:39:40;7.32;;;2.85;;
17686;SDS011;8962;52.538;13.266;2023-04-30T01:42:22;9.70;;;3.20;;
17686;SDS011;8962;52.538;13.266;2023-04-30T01:45:06;5.38;;;2.42;;
17686;SDS011;8962;52.538;13.266;2023-04-30T01:47:45;11.15;;;2.90;;
17686;SDS011;8962;52.538;13.266;2023-04-30T01:50:19;9.68;;;2.83;;
17686;SDS011;8962;52.538;13.266;2023-04-30T01:52:56;12.80;;;3.15;;
17686;SDS011;8962;52.538;13.266;2023-04-30T01:55:27;11.15;;;2.70;;
17686;SDS011;8962;52.538;13.266;2023-04-30T01:58:02;9.10;;;3.03;;
17686;SDS011;8962;52.538;13.266;2023-04-30T02:00:33;8.45;;;3.28;;
17686;SDS011;8962;52.538;13.266;2023-04-30T02:03:00;7.80;;;3.13;;
17686;SDS011;8962;52.538;13.266;2023-04-30T02:05:28;11.27;;;2.70;;
17686;SDS011;8962;52.538;13.266;2023-04-30T02:07:55;10.80;;;3.15;;
17686;SDS011;8962;52.538;13.266;2023-04-30T02:10:23;8.13;;;3.30;;
17686;SDS011;8962;52.538;13.266;2023-04-30T02:12:51;8.07;;;3.38;;
17686;SDS011;8962;52.538;13.266;2023-04-30T02:15:19;8.68;;;2.70;;
17686;SDS011;8962;52.538;13.266;2023-04-30T02:17:47;8.10;;;3.45;;
17686;SDS011;8962;52.538;13.266;2023-04-30T02:20:15;5.18;;;2.72;;
17686;SDS011;8962;52.538;13.266;2023-04-30T02:22:42;12.18;;;3.20;;
17686;SDS011;8962;52.538;13.266;2023-04-30T02:25:10;8.05;;;3.15;;
17686;SDS011;8962;52.538;13.266;2023-04-30T02:27:38;6.00;;;3.00;;
17686;SDS011;8962;52.538;13.266;2023-04-30T02:30:06;6.72;;;2.90;;
17686;SDS011;8962;52.538;13.266;2023-04-30T02:32:33;8.52;;;3.47;;
17686;SDS011;8962;52.538;13.266;2023-04-30T02:35:02;8.05;;;2.95;;
17686;SDS011;8962;52.538;13.266;2023-04-30T02:37:29;8.57;;;3.45;;
17686;SDS011;8962;52.538;13.266;2023-04-30T02:39:56;10.93;;;3.42;;
17686;SDS011;8962;52.538;13.266;2023-04-30T02:42:24;7.63;;;3.22;;
17686;SDS011;8962;52.538;13.266;2023-04-30T02:44:51;8.27;;;3.60;;
17686;SDS011;8962;52.538;13.266;2023-04-30T02:47:18;9.25;;;3.92;;
17686;SDS011;8962;52.538;13.266;2023-04-30T02:49:45;6.85;;;3.53;;
17686;SDS011;8962;52.538;13.266;2023-04-30T02:52:14;7.45;;;3.63;;
17686;SDS011;8962;52.538;13.266;2023-04-30T02:54:42;9.73;;;4.35;;
17686;SDS011;8962;52.538;13.266;2023-04-30T02:57:09;13.15;;;4.03;;
17686;SDS011;8962;52.538;13.266;2023-04-30T02:59:36;7.53;;;3.50;;
17686;SDS011;8962;52.538;13.266;2023-04-30T03:02:04;9.25;;;4.13;;
17686;SDS011;8962;52.538;13.266;2023-04-30T03:04:31;11.80;;;4.00;;
17686;SDS011;8962;52.538;13.266;2023-04-30T03:06:58;10.80;;;4.45;;
17686;SDS011;8962;52.538;13.266;2023-04-30T03:09:27;11.40;;;3.83;;
17686;SDS011;8962;52.538;13.266;2023-04-30T03:11:55;7.85;;;3.72;;
17686;SDS011;8962;52.538;13.266;2023-04-30T03:14:22;9.50;;;3.58;;
17686;SDS011;8962;52.538;13.266;2023-04-30T03:16:49;9.48;;;3.72;;
17686;SDS011;8962;52.538;13.266;2023-04-30T03:19:16;9.80;;;3.88;;
17686;SDS011;8962;52.538;13.266;2023-04-30T03:21:49;11.98;;;4.22;;
17686;SDS011;8962;52.538;13.266;2023-04-30T03:24:17;15.82;;;4.03;;
17686;SDS011;8962;52.538;13.266;2023-04-30T03:26:45;10.23;;;4.00;;
17686;SDS011;8962;52.538;13.266;2023-04-30T03:29:12;9.70;;;3.97;;
17686;SDS011;8962;52.538;13.266;2023-04-30T03:31:39;8.32;;;3.95;;
17686;SDS011;8962;52.538;13.266;2023-04-30T03:34:06;9.27;;;3.72;;
17686;SDS011;8962;52.538;13.266;2023-04-30T03:36:33;10.38;;;3.85;;
17686;SDS011;8962;52.538;13.266;2023-04-30T03:39:01;7.00;;;3.72;;
17686;SDS011;8962;52.538;13.266;2023-04-30T03:41:28;10.43;;;4.00;;
17686;SDS011;8962;52.538;13.266;2023-04-30T03:43:57;11.73;;;4.05;;
17686;SDS011;8962;52.538;13.266;2023-04-30T03:46:24;14.77;;;3.95;;
17686;SDS011;8962;52.538;13.266;2023-04-30T03:48:52;11.63;;;3.95;;
17686;SDS011;8962;52.538;13.266;2023-04-30T03:51:23;9.60;;;3.97;;
17686;SDS011;8962;52.538;13.266;2023-04-30T03:53:52;8.75;;;3.83;;
17686;SDS011;8962;52.538;13.266;2023-04-30T03:56:20;15.50;;;3.90;;
17686;SDS011;8962;52.538;13.266;2023-04-30T03:58:47;9.25;;;4.00;;
17686;SDS011;8962;52.538;13.266;2023-04-30T04:01:16;11.38;;;3.83;;
17686;SDS011;8962;52.538;13.266;2023-04-30T04:03:43;13.25;;;4.50;;
17686;SDS011;8962;52.538;13.266;2023-04-30T04:06:11;12.63;;;3.83;;
17686;SDS011;8962;52.538;13.266;2023-04-30T04:08:38;11.63;;;3.80;;
17686;SDS011;8962;52.538;13.266;2023-04-30T04:11:07;9.35;;;3.50;;
17686;SDS011;8962;52.538;13.266;2023-04-30T04:13:34;8.90;;;3.80;;
17686;SDS011;8962;52.538;13.266;2023-04-30T04:16:01;13.05;;;4.22;;
17686;SDS011;8962;52.538;13.266;2023-04-30T04:18:31;14.68;;;4.15;;
17686;SDS011;8962;52.538;13.266;2023-04-30T04:20:58;9.68;;;4.03;;
17686;SDS011;8962;52.538;13.266;2023-04-30T04:23:27;10.93;;;3.92;;
17686;SDS011;8962;52.538;13.266;2023-04-30T04:25:54;14.80;;;4.22;;
17686;SDS011;8962;52.538;13.266;2023-04-30T04:28:23;14.50;;;4.18;;
17686;SDS011;8962;52.538;13.266;2023-04-30T04:30:50;10.60;;;3.90;;
17686;SDS011;8962;52.538;13.266;2023-04-30T04:33:17;9.13;;;3.78;;
17686;SDS011;8962;52.538;13.266;2023-04-30T04:35:46;9.73;;;3.97;;
17686;SDS011;8962;52.538;13.266;2023-04-30T04:38:13;18.88;;;4.30;;
17686;SDS011;8962;52.538;13.266;2023-04-30T04:40:44;9.20;;;4.07;;
17686;SDS011;8962;52.538;13.266;2023-04-30T04:43:18;17.60;;;4.55;;
17686;SDS011;8962;52.538;13.266;2023-04-30T04:45:45;10.38;;;3.85;;
17686;SDS011;8962;52.538;13.266;2023-04-30T04:48:13;10.40;;;4.28;;
17686;SDS011;8962;52.538;13.266;2023-04-30T04:50:40;9.38;;;4.05;;
17686;SDS011;8962;52.538;13.266;2023-04-30T04:53:09;12.60;;;4.15;;
17686;SDS011;8962;52.538;13.266;2023-04-30T04:55:37;10.98;;;4.43;;
17686;SDS011;8962;52.538;13.266;2023-04-30T04:58:05;9.27;;;4.07;;
17686;SDS011;8962;52.538;13.266;2023-04-30T05:00:32;14.57;;;4.50;;
17686;SDS011;8962;52.538;13.266;2023-04-30T05:02:59;17.85;;;4.88;;
17686;SDS011;8962;52.538;13.266;2023-04-30T05:05:26;11.18;;;4.00;;
17686;SDS011;8962;52.538;13.266;2023-04-30T05:07:53;11.95;;;4.28;;
17686;SDS011;8962;52.538;13.266;2023-04-30T05:10:22;11.02;;;4.25;;
17686;SDS011;8962;52.538;13.266;2023-04-30T05:12:49;9.80;;;3.85;;
17686;SDS011;8962;52.538;13.266;2023-04-30T05:15:16;11.48;;;4.47;;
17686;SDS011;8962;52.538;13.266;2023-04-30T05:17:43;12.48;;;4.25;;
17686;SDS011;8962;52.538;13.266;2023-04-30T05:20:11;8.77;;;4.20;;
17686;SDS011;8962;52.538;13.266;2023-04-30T05:22:38;9.43;;;4.05;;
17686;SDS011;8962;52.538;13.266;2023-04-30T05:25:06;10.10;;;3.97;;
17686;SDS011;8962;52.538;13.266;2023-04-30T05:27:35;7.35;;;3.70;;
17686;SDS011;8962;52.538;13.266;2023-04-30T05:30:02;11.55;;;4.40;;
17686;SDS011;8962;52.538;13.266;2023-04-30T05:32:30;16.10;;;4.72;;
17686;SDS011;8962;52.538;13.266;2023-04-30T05:34:58;12.55;;;3.80;;
17686;SDS011;8962;52.538;13.266;2023-04-30T05:37:25;8.35;;;3.75;;
17686;SDS011;8962;52.538;13.266;2023-04-30T05:39:52;11.15;;;3.90;;
17686;SDS011;8962;52.538;13.266;2023-04-30T05:42:19;13.32;;;4.07;;
17686;SDS011;8962;52.538;13.266;2023-04-30T05:44:48;10.48;;;3.97;;
17686;SDS011;8962;52.538;13.266;2023-04-30T05:47:15;12.23;;;3.78;;
17686;SDS011;8962;52.538;13.266;2023-04-30T05:49:42;9.05;;;4.03;;
17686;SDS011;8962;52.538;13.266;2023-04-30T05:52:09;10.90;;;4.25;;
17686;SDS011;8962;52.538;13.266;2023-04-30T05:54:39;8.90;;;3.75;;
17686;SDS011;8962;52.538;13.266;2023-04-30T05:57:06;14.45;;;3.95;;
17686;SDS011;8962;52.538;13.266;2023-04-30T05:59:33;10.57;;;4.10;;
17686;SDS011;8962;52.538;13.266;2023-04-30T06:02:03;10.43;;;3.47;;
17686;SDS011;8962;52.538;13.266;2023-04-30T06:04:30;7.85;;;3.92;;
17686;SDS011;8962;52.538;13.266;2023-04-30T06:06:57;7.63;;;3.60;;
17686;SDS011;8962;52.538;13.266;2023-04-30T06:09:25;11.18;;;3.85;;
17686;SDS011;8962;52.538;13.266;2023-04-30T06:11:52;13.82;;;3.80;;
17686;SDS011;8962;52.538;13.266;2023-04-30T06:14:20;7.18;;;3.78;;
17686;SDS011;8962;52.538;13.266;2023-04-30T06:16:47;11.88;;;4.00;;
17686;SDS011;8962;52.538;13.266;2023-04-30T06:19:16;9.48;;;3.67;;
17686;SDS011;8962;52.538;13.266;2023-04-30T06:21:43;12.15;;;3.70;;
17686;SDS011;8962;52.538;13.266;2023-04-30T06:24:10;11.07;;;3.83;;
17686;SDS011;8962;52.538;13.266;2023-04-30T06:26:37;10.63;;;3.90;;
17686;SDS011;8962;52.538;13.266;2023-04-30T06:29:05;11.32;;;3.80;;
17686;SDS011;8962;52.538;13.266;2023-04-30T06:31:31;12.70;;;4.60;;
17686;SDS011;8962;52.538;13.266;2023-04-30T06:33:59;10.85;;;3.35;;
17686;SDS011;8962;52.538;13.266;2023-04-30T06:36:27;8.98;;;3.63;;
17686;SDS011;8962;52.538;13.266;2023-04-30T06:38:55;11.93;;;3.83;;
17686;SDS011;8962;52.538;13.266;2023-04-30T06:41:22;12.90;;;3.80;;
17686;SDS011;8962;52.538;13.266;2023-04-30T06:43:49;9.98;;;3.70;;
17686;SDS011;8962;52.538;13.266;2023-04-30T06:46:17;11.45;;;4.07;;
17686;SDS011;8962;52.538;13.266;2023-04-30T06:48:44;10.93;;;4.40;;
17686;SDS011;8962;52.538;13.266;2023-04-30T06:51:11;12.57;;;4.18;;
17686;SDS011;8962;52.538;13.266;2023-04-30T06:53:39;10.65;;;3.65;;
17686;SDS011;8962;52.538;13.266;2023-04-30T06:56:07;8.73;;;3.60;;
17686;SDS011;8962;52.538;13.266;2023-04-30T06:58:34;11.38;;;3.80;;
17686;SDS011;8962;52.538;13.266;2023-04-30T07:01:01;11.73;;;4.05;;
17686;SDS011;8962;52.538;13.266;2023-04-30T07:03:28;12.68;;;4.05;;
17686;SDS011;8962;52.538;13.266;2023-04-30T07:05:55;10.57;;;3.80;;
17686;SDS011;8962;52.538;13.266;2023-04-30T07:08:22;12.20;;;4.13;;
17686;SDS011;8962;52.538;13.266;2023-04-30T07:10:50;9.50;;;4.13;;
17686;SDS011;8962;52.538;13.266;2023-04-30T07:13:18;10.57;;;3.83;;
17686;SDS011;8962;52.538;13.266;2023-04-30T07:15:45;12.75;;;4.10;;
17686;SDS011;8962;52.538;13.266;2023-04-30T07:18:12;8.88;;;3.75;;
17686;SDS011;8962;52.538;13.266;2023-04-30T07:20:40;15.90;;;4.05;;
17686;SDS011;8962;52.538;13.266;2023-04-30T07:23:10;10.07;;;3.88;;
17686;SDS011;8962;52.538;13.266;2023-04-30T07:25:38;11.20;;;4.05;;
17686;SDS011;8962;52.538;13.266;2023-04-30T07:28:06;9.82;;;3.83;;
17686;SDS011;8962;52.538;13.266;2023-04-30T07:30:34;9.95;;;3.55;;
17686;SDS011;8962;52.538;13.266;2023-04-30T07:33:01;9.48;;;3.80;;
17686;SDS011;8962;52.538;13.266;2023-04-30T07:35:28;11.13;;;4.00;;
17686;SDS011;8962;52.538;13.266;2023-04-30T07:37:55;8.45;;;3.17;;
17686;SDS011;8962;52.538;13.266;2023-04-30T07:40:24;12.27;;;3.85;;
17686;SDS011;8962;52.538;13.266;2023-04-30T07:42:51;8.20;;;3.55;;
17686;SDS011;8962;52.538;13.266;2023-04-30T07:45:21;12.98;;;4.00;;
17686;SDS011;8962;52.538;13.266;2023-04-30T07:47:48;5.82;;;3.20;;
17686;SDS011;8962;52.538;13.266;2023-04-30T07:50:16;13.48;;;3.72;;
17686;SDS011;8962;52.538;13.266;2023-04-30T07:52:43;10.73;;;3.28;;
17686;SDS011;8962;52.538;13.266;2023-04-30T07:55:10;14.30;;;4.50;;
17686;SDS011;8962;52.538;13.266;2023-04-30T07:57:38;11.13;;;3.67;;
17686;SDS011;8962;52.538;13.266;2023-04-30T08:00:06;10.65;;;3.88;;
17686;SDS011;8962;52.538;13.266;2023-04-30T08:02:55;8.38;;;3.20;;
17686;SDS011;8962;52.538;13.266;2023-04-30T08:05:23;8.93;;;4.13;;
17686;SDS011;8962;52.538;13.266;2023-04-30T08:07:50;12.05;;;3.88;;
17686;SDS011;8962;52.538;13.266;2023-04-30T08:10:18;7.75;;;3.92;;
17686;SDS011;8962;52.538;13.266;2023-04-30T08:12:45;11.57;;;3.47;;
17686;SDS011;8962;52.538;13.266;2023-04-30T08:15:13;10.63;;;3.20;;
17686;SDS011;8962;52.538;13.266;2023-04-30T08:17:40;11.93;;;3.40;;
17686;SDS011;8962;52.538;13.266;2023-04-30T08:20:09;11.60;;;3.53;;
17686;SDS011;8962;52.538;13.266;2023-04-30T08:22:37;10.55;;;3.58;;
17686;SDS011;8962;52.538;13.266;2023-04-30T08:25:18;5.88;;;2.53;;
17686;SDS011;8962;52.538;13.266;2023-04-30T08:27:46;5.97;;;2.40;;
17686;SDS011;8962;52.538;13.266;2023-04-30T08:30:13;7.60;;;2.63;;
17686;SDS011;8962;52.538;13.266;2023-04-30T08:32:41;7.47;;;2.90;;
17686;SDS011;8962;52.538;13.266;2023-04-30T08:35:10;7.63;;;2.50;;
17686;SDS011;8962;52.538;13.266;2023-04-30T08:37:38;7.50;;;2.67;;
17686;SDS011;8962;52.538;13.266;2023-04-30T08:40:07;8.48;;;2.67;;
17686;SDS011;8962;52.538;13.266;2023-04-30T08:42:37;9.07;;;2.58;;
17686;SDS011;8962;52.538;13.266;2023-04-30T08:45:10;5.70;;;2.60;;
17686;SDS011;8962;52.538;13.266;2023-04-30T08:47:38;7.00;;;2.65;;
17686;SDS011;8962;52.538;13.266;2023-04-30T08:50:06;5.78;;;2.72;;
17686;SDS011;8962;52.538;13.266;2023-04-30T08:52:36;5.45;;;2.13;;
17686;SDS011;8962;52.538;13.266;2023-04-30T08:55:06;7.90;;;3.03;;
17686;SDS011;8962;52.538;13.266;2023-04-30T08:57:35;10.23;;;3.55;;
17686;SDS011;8962;52.538;13.266;2023-04-30T09:00:12;8.55;;;2.97;;
17686;SDS011;8962;52.538;13.266;2023-04-30T09:02:40;4.50;;;2.58;;
17686;SDS011;8962;52.538;13.266;2023-04-30T09:05:08;5.35;;;3.03;;
17686;SDS011;8962;52.538;13.266;2023-04-30T09:07:39;5.40;;;2.72;;
17686;SDS011;8962;52.538;13.266;2023-04-30T09:10:13;7.00;;;2.70;;
17686;SDS011;8962;52.538;13.266;2023-04-30T09:12:41;12.52;;;3.17;;
17686;SDS011;8962;52.538;13.266;2023-04-30T09:15:10;8.90;;;2.95;;
17686;SDS011;8962;52.538;13.266;2023-04-30T09:17:41;8.68;;;2.60;;
17686;SDS011;8962;52.538;13.266;2023-04-30T09:20:08;4.82;;;2.45;;
17686;SDS011;8962;52.538;13.266;2023-04-30T09:22:39;5.15;;;2.38;;
17686;SDS011;8962;52.538;13.266;2023-04-30T09:25:07;4.68;;;2.30;;
17686;SDS011;8962;52.538;13.266;2023-04-30T09:27:35;5.05;;;2.13;;
17686;SDS011;8962;52.538;13.266;2023-04-30T09:30:02;5.47;;;2.45;;
17686;SDS011;8962;52.538;13.266;2023-04-30T09:32:30;6.43;;;2.38;;
17686;SDS011;8962;52.538;13.266;2023-04-30T09:34:57;5.50;;;2.40;;
17686;SDS011;8962;52.538;13.266;2023-04-30T09:37:33;4.40;;;2.10;;
17686;SDS011;8962;52.538;13.266;2023-04-30T09:40:03;8.13;;;2.72;;
17686;SDS011;8962;52.538;13.266;2023-04-30T09:42:31;7.68;;;2.72;;
17686;SDS011;8962;52.538;13.266;2023-04-30T09:44:58;5.57;;;2.40;;
17686;SDS011;8962;52.538;13.266;2023-04-30T09:47:28;5.03;;;2.50;;
17686;SDS011;8962;52.538;13.266;2023-04-30T09:49:57;5.32;;;2.83;;
17686;SDS011;8962;52.538;13.266;2023-04-30T09:52:25;6.07;;;2.55;;
17686;SDS011;8962;52.538;13.266;2023-04-30T09:54:53;8.00;;;2.88;;
17686;SDS011;8962;52.538;13.266;2023-04-30T09:57:22;5.88;;;2.63;;
17686;SDS011;8962;52.538;13.266;2023-04-30T09:59:49;8.27;;;2.45;;
17686;SDS011;8962;52.538;13.266;2023-04-30T10:02:18;7.70;;;2.78;;
17686;SDS011;8962;52.538;13.266;2023-04-30T10:04:48;6.15;;;2.97;;
17686;SDS011;8962;52.538;13.266;2023-04-30T10:07:20;8.73;;;2.70;;
17686;SDS011;8962;52.538;13.266;2023-04-30T10:09:54;4.50;;;2.72;;
17686;SDS011;8962;52.538;13.266;2023-04-30T10:12:28;7.32;;;2.80;;
17686;SDS011;8962;52.538;13.266;2023-04-30T10:15:03;7.43;;;2.80;;
17686;SDS011;8962;52.538;13.266;2023-04-30T10:17:36;6.88;;;2.80;;
17686;SDS011;8962;52.538;13.266;2023-04-30T10:20:06;7.00;;;2.60;;
17686;SDS011;8962;52.538;13.266;2023-04-30T10:22:35;5.43;;;2.80;;
17686;SDS011;8962;52.538;13.266;2023-04-30T10:25:03;6.40;;;2.90;;
17686;SDS011;8962;52.538;13.266;2023-04-30T10:27:36;7.72;;;2.85;;
17686;SDS011;8962;52.538;13.266;2023-04-30T10:30:04;9.18;;;2.90;;
17686;SDS011;8962;52.538;13.266;2023-04-30T10:32:36;8.18;;;3.03;;
17686;SDS011;8962;52.538;13.266;2023-04-30T10:35:14;7.32;;;3.13;;
17686;SDS011;8962;52.538;13.266;2023-04-30T10:37:46;9.25;;;3.25;;
17686;SDS011;8962;52.538;13.266;2023-04-30T10:40:17;8.77;;;3.17;;
17686;SDS011;8962;52.538;13.266;2023-04-30T10:42:46;7.15;;;2.83;;
17686;SDS011;8962;52.538;13.266;2023-04-30T10:45:14;5.45;;;2.90;;
17686;SDS011;8962;52.538;13.266;2023-04-30T10:47:42;19.92;;;8.18;;
17686;SDS011;8962;52.538;13.266;2023-04-30T10:50:10;9.18;;;3.28;;
17686;SDS011;8962;52.538;13.266;2023-04-30T10:52:38;5.40;;;2.53;;
17686;SDS011;8962;52.538;13.266;2023-04-30T10:55:06;6.53;;;2.88;;
17686;SDS011;8962;52.538;13.266;2023-04-30T10:57:39;10.35;;;5.70;;
17686;SDS011;8962;52.538;13.266;2023-04-30T11:02:55;5.43;;;2.78;;
17686;SDS011;8962;52.538;13.266;2023-04-30T11:05:35;7.30;;;2.70;;
17686;SDS011;8962;52.538;13.266;2023-04-30T11:08:03;6.45;;;2.92;;
17686;SDS011;8962;52.538;13.266;2023-04-30T11:10:31;10.02;;;3.38;;
17686;SDS011;8962;52.538;13.266;2023-04-30T11:13:02;8.50;;;3.17;;
17686;SDS011;8962;52.538;13.266;2023-04-30T11:15:34;6.55;;;3.05;;
17686;SDS011;8962;52.538;13.266;2023-04-30T11:18:07;6.00;;;2.80;;
17686;SDS011;8962;52.538;13.266;2023-04-30T11:20:38;6.45;;;3.10;;
17686;SDS011;8962;52.538;13.266;2023-04-30T11:23:10;6.32;;;3.03;;
17686;SDS011;8962;52.538;13.266;2023-04-30T11:25:39;11.98;;;3.17;;
17686;SDS011;8962;52.538;13.266;2023-04-30T11:28:07;7.72;;;3.10;;
17686;SDS011;8962;52.538;13.266;2023-04-30T11:30:40;5.88;;;3.33;;
17686;SDS011;8962;52.538;13.266;2023-04-30T11:33:15;7.47;;;3.45;;
17686;SDS011;8962;52.538;13.266;2023-04-30T11:35:42;8.32;;;3.22;;
17686;SDS011;8962;52.538;13.266;2023-04-30T11:38:11;5.22;;;2.90;;
17686;SDS011;8962;52.538;13.266;2023-04-30T11:40:39;7.57;;;3.03;;
17686;SDS011;8962;52.538;13.266;2023-04-30T11:43:07;6.68;;;2.92;;
17686;SDS011;8962;52.538;13.266;2023-04-30T11:45:58;6.10;;;2.92;;
17686;SDS011;8962;52.538;13.266;2023-04-30T11:48:29;8.98;;;2.78;;
17686;SDS011;8962;52.538;13.266;2023-04-30T11:50:57;9.55;;;3.08;;
17686;SDS011;8962;52.538;13.266;2023-04-30T11:53:27;7.63;;;2.97;;
17686;SDS011;8962;52.538;13.266;2023-04-30T11:55:55;9.25;;;3.03;;
17686;SDS011;8962;52.538;13.266;2023-04-30T11:58:23;8.45;;;2.53;;
17686;SDS011;8962;52.538;13.266;2023-04-30T12:00:50;6.90;;;3.00;;
17686;SDS011;8962;52.538;13.266;2023-04-30T12:03:19;8.45;;;3.22;;
17686;SDS011;8962;52.538;13.266;2023-04-30T12:05:46;6.35;;;2.80;;
17686;SDS011;8962;52.538;13.266;2023-04-30T12:08:14;8.38;;;2.90;;
17686;SDS011;8962;52.538;13.266;2023-04-30T12:10:44;6.60;;;3.10;;
17686;SDS011;8962;52.538;13.266;2023-04-30T12:13:12;5.30;;;2.90;;
17686;SDS011;8962;52.538;13.266;2023-04-30T12:15:41;8.07;;;2.75;;
17686;SDS011;8962;52.538;13.266;2023-04-30T12:18:11;5.68;;;2.70;;
17686;SDS011;8962;52.538;13.266;2023-04-30T12:20:42;5.60;;;2.90;;
17686;SDS011;8962;52.538;13.266;2023-04-30T12:23:09;8.82;;;2.78;;
17686;SDS011;8962;52.538;13.266;2023-04-30T12:25:40;10.00;;;3.28;;
17686;SDS011;8962;52.538;13.266;2023-04-30T12:28:08;5.13;;;3.05;;
17686;SDS011;8962;52.538;13.266;2023-04-30T12:30:36;7.40;;;3.00;;
17686;SDS011;8962;52.538;13.266;2023-04-30T12:33:03;7.03;;;2.70;;
17686;SDS011;8962;52.538;13.266;2023-04-30T12:35:31;4.25;;;2.20;;
17686;SDS011;8962;52.538;13.266;2023-04-30T12:38:04;5.93;;;2.28;;
17686;SDS011;8962;52.538;13.266;2023-04-30T12:40:34;5.45;;;2.50;;
17686;SDS011;8962;52.538;13.266;2023-04-30T12:43:02;6.10;;;2.10;;
17686;SDS011;8962;52.538;13.266;2023-04-30T12:45:44;5.20;;;2.50;;
17686;SDS011;8962;52.538;13.266;2023-04-30T12:48:13;8.07;;;2.63;;
17686;SDS011;8962;52.538;13.266;2023-04-30T12:50:41;4.50;;;2.22;;
17686;SDS011;8962;52.538;13.266;2023-04-30T12:53:15;5.97;;;2.50;;
17686;SDS011;8962;52.538;13.266;2023-04-30T12:55:42;6.20;;;2.50;;
17686;SDS011;8962;52.538;13.266;2023-04-30T12:58:10;4.88;;;2.67;;
17686;SDS011;8962;52.538;13.266;2023-04-30T13:00:44;4.85;;;2.50;;
17686;SDS011;8962;52.538;13.266;2023-04-30T13:03:12;8.75;;;2.60;;
17686;SDS011;8962;52.538;13.266;2023-04-30T13:05:40;6.85;;;2.70;;
17686;SDS011;8962;52.538;13.266;2023-04-30T13:08:11;6.97;;;2.92;;
17686;SDS011;8962;52.538;13.266;2023-04-30T13:10:40;3.40;;;2.40;;
17686;SDS011;8962;52.538;13.266;2023-04-30T13:13:09;6.97;;;2.50;;
17686;SDS011;8962;52.538;13.266;2023-04-30T13:15:37;6.63;;;2.50;;
17686;SDS011;8962;52.538;13.266;2023-04-30T13:18:06;5.57;;;2.58;;
17686;SDS011;8962;52.538;13.266;2023-04-30T13:20:34;5.20;;;2.33;;
17686;SDS011;8962;52.538;13.266;2023-04-30T13:23:01;6.70;;;2.55;;
17686;SDS011;8962;52.538;13.266;2023-04-30T13:25:34;6.38;;;2.60;;
17686;SDS011;8962;52.538;13.266;2023-04-30T13:28:01;4.00;;;2.42;;
17686;SDS011;8962;52.538;13.266;2023-04-30T13:30:29;7.10;;;2.63;;
17686;SDS011;8962;52.538;13.266;2023-04-30T13:32:56;6.35;;;2.53;;
17686;SDS011;8962;52.538;13.266;2023-04-30T13:35:25;7.85;;;2.40;;
17686;SDS011;8962;52.538;13.266;2023-04-30T13:37:53;5.60;;;2.40;;
17686;SDS011;8962;52.538;13.266;2023-04-30T13:40:21;9.00;;;2.72;;
17686;SDS011;8962;52.538;13.266;2023-04-30T13:42:50;7.47;;;2.45;;
17686;SDS011;8962;52.538;13.266;2023-04-30T13:45:19;4.95;;;2.60;;
17686;SDS011;8962;52.538;13.266;2023-04-30T13:47:46;7.38;;;2.70;;
17686;SDS011;8962;52.538;13.266;2023-04-30T13:50:14;6.22;;;2.60;;
17686;SDS011;8962;52.538;13.266;2023-04-30T13:52:41;6.13;;;2.60;;
17686;SDS011;8962;52.538;13.266;2023-04-30T13:55:08;4.88;;;2.47;;
17686;SDS011;8962;52.538;13.266;2023-04-30T13:57:36;4.78;;;2.55;;
17686;SDS011;8962;52.538;13.266;2023-04-30T14:00:06;6.13;;;2.75;;
17686;SDS011;8962;52.538;13.266;2023-04-30T14:02:34;5.45;;;2.50;;
17686;SDS011;8962;52.538;13.266;2023-04-30T14:05:01;6.70;;;2.85;;
17686;SDS011;8962;52.538;13.266;2023-04-30T14:07:29;6.03;;;2.40;;
17686;SDS011;8962;52.538;13.266;2023-04-30T14:09:57;7.10;;;2.60;;
17686;SDS011;8962;52.538;13.266;2023-04-30T14:12:24;8.15;;;2.80;;
17686;SDS011;8962;52.538;13.266;2023-04-30T14:14:53;6.18;;;2.35;;
17686;SDS011;8962;52.538;13.266;2023-04-30T14:17:21;4.90;;;2.38;;
17686;SDS011;8962;52.538;13.266;2023-04-30T14:19:49;6.60;;;2.05;;
17686;SDS011;8962;52.538;13.266;2023-04-30T14:22:16;4.38;;;2.40;;
17686;SDS011;8962;52.538;13.266;2023-04-30T14:24:43;6.82;;;2.53;;
17686;SDS011;8962;52.538;13.266;2023-04-30T14:27:10;4.80;;;2.20;;
17686;SDS011;8962;52.538;13.266;2023-04-30T14:29:37;4.90;;;2.30;;
17686;SDS011;8962;52.538;13.266;2023-04-30T14:32:05;5.32;;;2.15;;
17686;SDS011;8962;52.538;13.266;2023-04-30T14:34:34;7.35;;;2.38;;
17686;SDS011;8962;52.538;13.266;2023-04-30T14:37:02;6.75;;;2.67;;
17686;SDS011;8962;52.538;13.266;2023-04-30T14:39:29;7.78;;;2.40;;
17686;SDS011;8962;52.538;13.266;2023-04-30T14:41:57;6.22;;;2.10;;
17686;SDS011;8962;52.538;13.266;2023-04-30T14:44:24;5.20;;;2.53;;
17686;SDS011;8962;52.538;13.266;2023-04-30T14:46:53;5.18;;;2.38;;
17686;SDS011;8962;52.538;13.266;2023-04-30T14:49:20;5.72;;;2.30;;
17686;SDS011;8962;52.538;13.266;2023-04-30T14:51:48;8.00;;;2.63;;
17686;SDS011;8962;52.538;13.266;2023-04-30T14:54:15;6.70;;;2.70;;
17686;SDS011;8962;52.538;13.266;2023-04-30T14:56:43;4.60;;;2.10;;